createdAt,value
2022-09-12T00:02:23.087Z,18.70
2022-09-12T00:04:54.942Z,18.70
2022-09-12T00:07:26.728Z,18.80
2022-09-12T00:09:58.554Z,18.80
2022-09-12T00:12:30.351Z,18.80
2022-09-12T00:15:02.223Z,18.70
2022-09-12T00:17:38.747Z,18.70
2022-09-12T00:20:11.786Z,18.70
2022-09-12T00:22:43.640Z,18.70
2022-09-12T00:25:15.530Z,18.70
2022-09-12T00:27:47.375Z,18.70
2022-09-12T00:30:19.150Z,18.70
2022-09-12T00:32:51.595Z,18.70
2022-09-12T00:35:23.435Z,18.60
2022-09-12T00:37:55.604Z,18.60
2022-09-12T00:40:28.566Z,18.50
2022-09-12T00:43:00.404Z,18.60
2022-09-12T00:45:32.439Z,18.50
2022-09-12T00:48:05.080Z,18.60
2022-09-12T00:50:36.962Z,18.60
2022-09-12T00:53:09.257Z,18.60
2022-09-12T00:55:49.556Z,18.60
2022-09-12T00:58:31.908Z,18.50
2022-09-12T01:01:03.957Z,18.50
2022-09-12T01:03:35.998Z,18.50
2022-09-12T01:06:15.834Z,18.50
2022-09-12T01:08:51.166Z,18.40
2022-09-12T01:11:23.615Z,18.40
2022-09-12T01:13:55.707Z,18.50
2022-09-12T01:16:27.737Z,18.50
2022-09-12T01:19:08.263Z,18.60
2022-09-12T01:22:00.295Z,18.60
2022-09-12T01:24:52.560Z,18.50
2022-09-12T01:27:53.508Z,18.50
2022-09-12T01:30:39.003Z,18.50
2022-09-12T01:33:44.401Z,18.30
2022-09-12T01:36:17.116Z,18.30
2022-09-12T01:39:31.260Z,18.20
2022-09-12T01:42:16.995Z,18.20
2022-09-12T01:45:11.562Z,18.20
2022-09-12T01:47:58.505Z,18.20
2022-09-12T01:50:40.381Z,18.30
2022-09-12T01:53:42.295Z,18.30
2022-09-12T01:56:35.886Z,18.40
2022-09-12T01:59:20.650Z,18.40
2022-09-12T02:02:03.286Z,18.40
2022-09-12T02:04:48.738Z,18.30
2022-09-12T02:07:53.032Z,18.20
2022-09-12T02:10:32.472Z,18.20
2022-09-12T02:13:19.979Z,18.10
2022-09-12T02:15:58.345Z,18.10
2022-09-12T02:18:32.397Z,18.10
2022-09-12T02:21:06.625Z,18.10
2022-09-12T02:23:43.470Z,18.20
2022-09-12T02:26:23.424Z,18.30
2022-09-12T02:28:57.712Z,18.30
2022-09-12T02:31:40.557Z,18.30
2022-09-12T02:34:31.041Z,18.40
2022-09-12T02:37:18.387Z,18.40
2022-09-12T02:39:50.218Z,18.50
2022-09-12T02:42:22.657Z,18.40
2022-09-12T02:44:57.381Z,18.30
2022-09-12T02:47:58.747Z,18.30
2022-09-12T02:50:30.551Z,18.20
2022-09-12T02:53:05.060Z,18.20
2022-09-12T02:55:39.406Z,18.30
2022-09-12T02:58:17.357Z,18.40
2022-09-12T03:01:23.199Z,18.40
2022-09-12T03:04:19.829Z,18.30
2022-09-12T03:07:14.859Z,18.20
2022-09-12T03:09:58.394Z,18.20
2022-09-12T03:12:43.132Z,18.10
2022-09-12T03:15:21.986Z,18.10
2022-09-12T03:18:08.747Z,18.10
2022-09-12T03:20:55.555Z,18.10
2022-09-12T03:23:53.211Z,18.10
2022-09-12T03:26:37.857Z,18.10
2022-09-12T03:29:11.908Z,18.10
2022-09-12T03:31:56.779Z,18.10
2022-09-12T03:34:28.609Z,18.10
2022-09-12T03:37:00.436Z,18.10
2022-09-12T03:39:32.518Z,18.10
2022-09-12T03:42:04.450Z,18.10
2022-09-12T03:44:36.246Z,18.10
2022-09-12T03:47:11.106Z,18.00
2022-09-12T03:49:43.242Z,17.90
2022-09-12T03:52:15.067Z,17.90
2022-09-12T03:54:46.878Z,17.90
2022-09-12T03:57:18.947Z,17.90
2022-09-12T03:59:50.856Z,17.90
2022-09-12T04:02:22.822Z,18.00
2022-09-12T04:04:54.874Z,18.00
2022-09-12T04:07:26.934Z,18.00
2022-09-12T04:09:58.730Z,18.00
2022-09-12T04:12:30.525Z,17.90
2022-09-12T04:15:02.406Z,18.00
2022-09-12T04:17:35.128Z,18.00
2022-09-12T04:20:07.500Z,18.10
2022-09-12T04:22:39.360Z,18.00
2022-09-12T04:25:11.716Z,18.00
2022-09-12T04:27:46.123Z,18.00
2022-09-12T04:30:18.040Z,18.00
2022-09-12T04:32:49.920Z,18.10
2022-09-12T04:35:21.722Z,18.10
2022-09-12T04:37:53.594Z,18.10
2022-09-12T04:40:25.496Z,18.10
2022-09-12T04:42:57.493Z,18.10
2022-09-12T04:45:29.419Z,18.10
2022-09-12T04:48:01.439Z,18.10
2022-09-12T04:50:33.282Z,18.10
2022-09-12T04:53:05.086Z,18.10
2022-09-12T04:55:36.952Z,18.10
2022-09-12T04:58:08.723Z,18.10
2022-09-12T05:00:40.550Z,18.20
2022-09-12T05:03:12.315Z,18.20
2022-09-12T05:05:44.192Z,18.20
2022-09-12T05:08:15.927Z,18.20
2022-09-12T05:10:47.706Z,18.20
2022-09-12T05:13:19.464Z,18.20
2022-09-12T05:15:55.571Z,18.20
2022-09-12T05:18:27.890Z,18.20
2022-09-12T05:21:00.960Z,18.10
2022-09-12T05:23:33.921Z,18.20
2022-09-12T05:26:07.759Z,18.10
2022-09-12T05:28:39.991Z,18.20
2022-09-12T05:31:21.119Z,18.50
2022-09-12T05:33:55.012Z,18.90
2022-09-12T05:36:30.741Z,19.30
2022-09-12T05:39:04.095Z,19.70
2022-09-12T05:41:36.157Z,19.90
2022-09-12T05:44:12.160Z,20.00
2022-09-12T05:46:48.596Z,20.10
2022-09-12T05:49:21.497Z,20.20
2022-09-12T05:51:53.410Z,20.40
2022-09-12T05:54:28.320Z,20.50
2022-09-12T05:57:02.761Z,20.60
2022-09-12T05:59:34.607Z,20.80
2022-09-12T06:02:06.674Z,20.80
2022-09-12T06:04:40.941Z,20.90
2022-09-12T06:07:13.419Z,21.00
2022-09-12T06:09:45.304Z,21.00
2022-09-12T06:12:17.089Z,20.80
2022-09-12T06:14:49.380Z,20.70
2022-09-12T06:17:22.171Z,20.60
2022-09-12T06:19:53.967Z,20.70
2022-09-12T06:22:25.727Z,20.70
2022-09-12T06:24:58.155Z,20.90
2022-09-12T06:27:30.020Z,21.10
2022-09-12T06:30:01.831Z,21.70
2022-09-12T06:32:34.502Z,22.20
2022-09-12T06:35:06.720Z,22.70
2022-09-12T06:37:38.483Z,23.20
2022-09-12T06:40:10.991Z,23.50
2022-09-12T06:42:42.863Z,23.50
2022-09-12T06:45:16.536Z,23.40
2022-09-12T06:47:48.394Z,23.60
2022-09-12T06:50:20.237Z,23.80
2022-09-12T06:52:52.083Z,24.10
2022-09-12T06:55:27.632Z,24.50
2022-09-12T06:57:59.888Z,25.00
2022-09-12T07:00:32.268Z,25.40
2022-09-12T07:03:04.189Z,25.60
2022-09-12T07:05:36.060Z,25.90
2022-09-12T07:08:07.849Z,26.00
2022-09-12T07:10:39.716Z,26.00
2022-09-12T07:13:11.720Z,26.20
2022-09-12T07:15:43.490Z,26.60
2022-09-12T07:18:16.227Z,27.00
2022-09-12T07:20:48.038Z,27.10
2022-09-12T07:23:19.807Z,27.40
2022-09-12T07:25:54.025Z,27.60
2022-09-12T07:28:27.250Z,27.90
2022-09-12T07:31:05.243Z,28.10
2022-09-12T07:33:38.364Z,28.60
2022-09-12T07:36:15.423Z,28.90
2022-09-12T07:38:47.299Z,29.20
2022-09-12T07:41:21.242Z,29.30
2022-09-12T07:43:58.182Z,29.60
2022-09-12T07:46:31.280Z,29.60
2022-09-12T07:49:03.337Z,29.70
2022-09-12T07:51:35.160Z,29.40
2022-09-12T07:54:10.345Z,28.90
2022-09-12T07:56:42.195Z,28.80
2022-09-12T07:59:18.913Z,29.20
2022-09-12T08:01:57.197Z,28.90
2022-09-12T08:04:30.467Z,28.40
2022-09-12T08:07:02.393Z,28.10
2022-09-12T08:09:34.338Z,27.50
2022-09-12T08:12:06.394Z,26.80
2022-09-12T08:14:38.193Z,26.80
2022-09-12T08:17:10.109Z,26.20
2022-09-12T08:19:42.119Z,26.00
2022-09-12T08:22:14.018Z,26.00
2022-09-12T08:24:45.790Z,26.20
2022-09-12T08:27:17.642Z,26.50
2022-09-12T08:29:49.466Z,26.30
2022-09-12T08:32:21.499Z,26.70
2022-09-12T08:34:53.258Z,26.80
2022-09-12T08:37:25.064Z,27.20
2022-09-12T08:39:57.087Z,27.90
2022-09-12T08:42:52.088Z,27.40
2022-09-12T08:45:38.766Z,27.20
2022-09-12T08:48:12.555Z,27.50
2022-09-12T08:50:49.327Z,27.10
2022-09-12T08:53:25.591Z,27.40
2022-09-12T08:56:00.071Z,27.60
2022-09-12T08:58:39.468Z,28.20
2022-09-12T09:01:32.418Z,29.00
2022-09-12T09:04:30.485Z,29.50
2022-09-12T09:07:31.149Z,29.90
2022-09-12T09:10:26.923Z,30.40
2022-09-12T09:13:43.656Z,30.10
2022-09-12T09:16:38.461Z,29.00
2022-09-12T09:19:18.243Z,28.40
2022-09-12T09:22:01.253Z,28.30
2022-09-12T09:24:44.757Z,27.90
2022-09-12T09:27:47.442Z,28.40
2022-09-12T09:30:21.588Z,29.00
2022-09-12T09:32:57.583Z,29.30
2022-09-12T09:35:39.001Z,29.00
2022-09-12T09:38:19.783Z,28.60
2022-09-12T09:41:30.174Z,28.10
2022-09-12T09:44:02.872Z,27.70
2022-09-12T09:46:35.071Z,27.40
2022-09-12T09:49:07.939Z,27.70
2022-09-12T09:51:42.168Z,27.90
2022-09-12T09:54:40.743Z,28.60
2022-09-12T09:57:34.375Z,28.50
2022-09-12T10:00:25.924Z,28.40
2022-09-12T10:03:04.752Z,29.00
2022-09-12T10:05:49.064Z,28.60
2022-09-12T10:08:27.408Z,28.10
2022-09-12T10:11:01.865Z,27.70
2022-09-12T10:13:39.538Z,28.00
2022-09-12T10:16:27.901Z,28.10
2022-09-12T10:19:01.742Z,28.00
2022-09-12T10:21:43.347Z,28.40
2022-09-12T10:24:26.184Z,28.50
2022-09-12T10:27:09.077Z,28.20
2022-09-12T10:29:48.570Z,28.40
2022-09-12T10:32:36.305Z,28.80
2022-09-12T10:35:30.968Z,29.00
2022-09-12T10:38:11.748Z,28.70
2022-09-12T10:40:44.779Z,28.30
2022-09-12T10:43:24.210Z,27.80
2022-09-12T10:46:19.244Z,27.20
2022-09-12T10:49:11.923Z,27.00
2022-09-12T10:51:43.759Z,26.70
2022-09-12T10:54:18.906Z,26.40
2022-09-12T10:57:07.289Z,26.30
2022-09-12T11:00:14.851Z,26.30
2022-09-12T11:03:11.269Z,26.20
2022-09-12T11:05:53.748Z,26.10
2022-09-12T11:09:12.999Z,26.20
2022-09-12T11:11:59.034Z,26.40
2022-09-12T11:14:37.064Z,26.40
2022-09-12T11:17:17.326Z,26.00
2022-09-12T11:20:31.037Z,25.90
2022-09-12T11:23:34.833Z,25.80
2022-09-12T11:26:24.923Z,25.90
2022-09-12T11:29:19.497Z,26.10
2022-09-12T11:31:54.319Z,26.00
2022-09-12T11:34:53.520Z,25.70
2022-09-12T11:37:50.576Z,25.70
2022-09-12T11:40:37.503Z,25.90
2022-09-12T11:43:21.371Z,26.00
2022-09-12T11:45:54.077Z,26.00
2022-09-12T11:48:45.446Z,25.80
2022-09-12T11:51:20.568Z,26.10
2022-09-12T11:54:03.477Z,26.20
2022-09-12T11:56:42.421Z,26.20
2022-09-12T11:59:46.849Z,26.20
2022-09-12T12:02:36.806Z,26.30
2022-09-12T12:05:44.714Z,26.30
2022-09-12T12:08:16.670Z,26.50
2022-09-12T12:11:03.266Z,26.30
2022-09-12T12:13:48.244Z,26.30
2022-09-12T12:16:34.902Z,26.20
2022-09-12T12:19:16.158Z,26.30
2022-09-12T12:21:50.847Z,26.40
2022-09-12T12:24:28.960Z,26.20
2022-09-12T12:27:00.878Z,26.20
2022-09-12T12:29:36.325Z,26.10
2022-09-12T12:32:10.057Z,26.20
2022-09-12T12:34:44.862Z,26.30
2022-09-12T12:37:19.732Z,26.50
2022-09-12T12:40:05.733Z,26.50
2022-09-12T12:42:37.760Z,26.60
2022-09-12T12:45:09.701Z,26.70
2022-09-12T12:48:15.888Z,26.90
2022-09-12T12:50:48.453Z,26.90
2022-09-12T12:53:25.384Z,26.90
2022-09-12T12:55:57.861Z,26.60
2022-09-12T12:58:33.216Z,26.40
2022-09-12T13:01:16.926Z,26.40
2022-09-12T13:03:59.159Z,26.40
2022-09-12T13:06:37.133Z,26.40
2022-09-12T13:09:20.546Z,26.50
2022-09-12T13:12:11.714Z,26.50
2022-09-12T13:14:43.705Z,26.60
2022-09-12T13:17:40.532Z,26.80
2022-09-12T13:20:35.629Z,27.00
2022-09-12T13:23:22.525Z,27.40
2022-09-12T13:26:00.552Z,28.00
2022-09-12T13:28:32.356Z,28.20
2022-09-12T13:31:24.443Z,28.50
2022-09-12T13:33:59.982Z,28.60
2022-09-12T13:36:38.159Z,28.60
2022-09-12T13:39:27.828Z,28.40
2022-09-12T13:42:18.310Z,28.20
2022-09-12T13:45:13.401Z,28.10
2022-09-12T13:47:47.757Z,28.20
2022-09-12T13:50:26.419Z,28.40
2022-09-12T13:53:14.283Z,28.40
2022-09-12T13:55:49.949Z,28.10
2022-09-12T13:58:27.040Z,27.80
2022-09-12T14:01:01.728Z,27.50
2022-09-12T14:04:20.334Z,27.60
2022-09-12T14:06:53.152Z,27.80
2022-09-12T14:09:29.779Z,27.70
2022-09-12T14:12:02.242Z,27.70
2022-09-12T14:14:37.603Z,28.00
2022-09-12T14:17:38.877Z,28.30
2022-09-12T14:20:16.559Z,28.60
2022-09-12T14:22:51.530Z,28.70
2022-09-12T14:25:25.493Z,28.60
2022-09-12T14:27:59.079Z,28.50
2022-09-12T14:30:33.283Z,28.60
2022-09-12T14:33:11.140Z,28.70
2022-09-12T14:35:45.117Z,28.80
2022-09-12T14:38:16.900Z,28.80
2022-09-12T14:41:01.020Z,28.70
2022-09-12T14:43:36.308Z,28.50
2022-09-12T14:46:30.637Z,28.30
2022-09-12T14:49:08.352Z,28.40
2022-09-12T14:52:26.085Z,28.50
2022-09-12T14:55:02.547Z,28.70
2022-09-12T14:57:40.871Z,28.70
2022-09-12T15:00:12.668Z,28.70
2022-09-12T15:02:44.920Z,28.80
2022-09-12T15:05:20.516Z,28.90
2022-09-12T15:07:55.508Z,28.90
2022-09-12T15:10:34.164Z,28.90
2022-09-12T15:13:05.946Z,28.90
2022-09-12T15:15:39.509Z,28.90
2022-09-12T15:18:12.177Z,28.90
2022-09-12T15:20:45.924Z,28.90
2022-09-12T15:23:24.370Z,28.80
2022-09-12T15:25:56.234Z,28.80
2022-09-12T15:28:30.220Z,28.70
2022-09-12T15:31:26.967Z,28.60
2022-09-12T15:34:01.336Z,28.60
2022-09-12T15:36:33.246Z,28.20
2022-09-12T15:39:05.153Z,28.10
2022-09-12T15:41:39.549Z,27.90
2022-09-12T15:44:12.879Z,27.80
2022-09-12T15:46:44.941Z,27.80
2022-09-12T15:49:17.130Z,27.70
2022-09-12T15:51:49.169Z,27.60
2022-09-12T15:54:21.509Z,27.60
2022-09-12T15:56:53.266Z,27.70
2022-09-12T15:59:25.121Z,27.70
2022-09-12T16:01:57.407Z,27.70
2022-09-12T16:04:30.711Z,27.60
2022-09-12T16:07:02.559Z,27.40
2022-09-12T16:09:34.438Z,27.30
2022-09-12T16:12:06.745Z,27.20
2022-09-12T16:14:38.614Z,27.00
2022-09-12T16:17:10.784Z,26.90
2022-09-12T16:19:42.610Z,26.90
2022-09-12T16:22:14.765Z,26.80
2022-09-12T16:24:46.556Z,26.80
2022-09-12T16:27:18.401Z,26.60
2022-09-12T16:29:51.623Z,26.50
2022-09-12T16:32:23.743Z,26.50
2022-09-12T16:34:55.711Z,26.40
2022-09-12T16:37:28.457Z,26.20
2022-09-12T16:40:01.089Z,26.00
2022-09-12T16:42:33.271Z,25.90
2022-09-12T16:45:05.450Z,25.80
2022-09-12T16:47:37.474Z,25.60
2022-09-12T16:50:09.653Z,25.50
2022-09-12T16:52:42.076Z,25.40
2022-09-12T16:55:14.109Z,25.30
2022-09-12T16:57:47.532Z,25.20
2022-09-12T17:00:19.519Z,25.20
2022-09-12T17:02:51.394Z,25.20
2022-09-12T17:05:23.300Z,25.00
2022-09-12T17:07:55.295Z,25.00
2022-09-12T17:10:28.007Z,25.00
2022-09-12T17:12:59.876Z,25.00
2022-09-12T17:15:31.867Z,25.00
2022-09-12T17:18:03.833Z,25.00
2022-09-12T17:20:36.353Z,25.00
2022-09-12T17:23:09.944Z,25.00
2022-09-12T17:25:49.293Z,25.00
2022-09-12T17:28:21.658Z,24.80
2022-09-12T17:31:02.216Z,24.70
2022-09-12T17:33:34.187Z,24.60
2022-09-12T17:36:15.043Z,24.40
2022-09-12T17:38:46.929Z,24.20
2022-09-12T17:41:21.957Z,24.00
2022-09-12T17:43:57.167Z,23.70
2022-09-12T17:46:36.385Z,23.50
2022-09-12T17:49:12.820Z,23.50
2022-09-12T17:51:45.039Z,23.40
2022-09-12T17:54:18.825Z,23.40
2022-09-12T17:56:51.575Z,23.30
2022-09-12T17:59:24.833Z,23.30
2022-09-12T18:02:16.231Z,23.10
2022-09-12T18:04:48.486Z,23.20
2022-09-12T18:07:20.815Z,23.10
2022-09-12T18:09:53.105Z,23.10
2022-09-12T18:12:25.229Z,23.00
2022-09-12T18:14:57.058Z,23.00
2022-09-12T18:17:28.866Z,23.00
2022-09-12T18:20:01.106Z,23.00
2022-09-12T18:22:32.991Z,23.10
2022-09-12T18:25:05.137Z,23.10
2022-09-12T18:27:36.963Z,23.00
2022-09-12T18:30:21.018Z,23.00
2022-09-12T18:32:53.605Z,23.00
2022-09-12T18:35:25.531Z,22.90
2022-09-12T18:37:57.345Z,22.80
2022-09-12T18:40:29.202Z,22.60
2022-09-12T18:43:01.045Z,22.50
2022-09-12T18:45:33.756Z,22.40
2022-09-12T18:48:06.307Z,22.40
2022-09-12T18:50:38.162Z,22.30
2022-09-12T18:53:10.051Z,22.30
2022-09-12T18:55:42.412Z,22.40
2022-09-12T18:58:14.177Z,22.40
2022-09-12T19:00:48.375Z,22.40
2022-09-12T19:03:20.342Z,22.40
2022-09-12T19:05:52.204Z,22.50
2022-09-12T19:08:24.127Z,22.40
2022-09-12T19:10:56.872Z,22.40
2022-09-12T19:13:28.840Z,22.40
2022-09-12T19:16:01.745Z,22.40
2022-09-12T19:18:34.044Z,22.40
2022-09-12T19:21:07.800Z,22.40
2022-09-12T19:23:39.881Z,22.40
2022-09-12T19:26:14.020Z,22.40
2022-09-12T19:28:46.138Z,22.40
2022-09-12T19:31:20.194Z,22.50
2022-09-12T19:33:52.526Z,22.60
2022-09-12T19:39:19.464Z,22.60
2022-09-12T19:41:51.293Z,22.50
2022-09-12T19:44:23.734Z,22.50
2022-09-12T19:46:55.549Z,22.50
2022-09-12T19:49:27.406Z,22.60
2022-09-12T19:51:59.365Z,22.50
2022-09-12T19:54:31.168Z,22.60
2022-09-12T19:57:03.207Z,22.60
2022-09-12T19:59:35.118Z,22.60
2022-09-12T20:02:07.835Z,22.70
2022-09-12T20:04:39.887Z,22.70
2022-09-12T20:07:11.885Z,22.70
2022-09-12T20:09:43.720Z,22.70
2022-09-12T20:12:15.865Z,22.70
2022-09-12T20:14:47.685Z,22.70
2022-09-12T20:17:19.540Z,22.70
2022-09-12T20:19:51.409Z,22.60
2022-09-12T20:22:23.690Z,22.60
2022-09-12T20:24:55.580Z,22.60
2022-09-12T20:27:27.514Z,22.70
2022-09-12T20:29:59.534Z,22.60
2022-09-12T20:32:31.411Z,22.70
2022-09-12T20:35:03.625Z,22.70
2022-09-12T20:37:35.936Z,22.70
2022-09-12T20:40:08.961Z,22.80
2022-09-12T20:42:41.228Z,22.90
2022-09-12T20:45:13.112Z,22.90
2022-09-12T20:47:44.944Z,22.90
2022-09-12T20:50:16.880Z,22.80
2022-09-12T20:52:48.623Z,22.80
2022-09-12T20:55:20.380Z,22.80
2022-09-12T20:57:52.240Z,22.80
2022-09-12T21:00:24.019Z,22.80
2022-09-12T21:02:56.797Z,22.80
2022-09-12T21:05:28.620Z,22.80
2022-09-12T21:08:01.081Z,22.80
2022-09-12T21:10:32.992Z,22.70
2022-09-12T21:13:04.767Z,22.70
2022-09-12T21:15:38.354Z,22.80
2022-09-12T21:18:10.195Z,22.70
2022-09-12T21:20:42.037Z,22.60
2022-09-12T21:23:13.836Z,22.50
2022-09-12T21:25:52.199Z,22.50
2022-09-12T21:28:24.609Z,22.50
2022-09-12T21:30:56.582Z,22.50
2022-09-12T21:33:28.493Z,22.40
2022-09-12T21:36:05.131Z,22.40
2022-09-12T21:38:37.057Z,22.40
2022-09-12T21:41:11.953Z,22.30
2022-09-12T21:43:44.153Z,22.30
2022-09-12T21:46:16.073Z,22.20
2022-09-12T21:48:48.086Z,22.10
2022-09-12T21:51:20.098Z,22.00
2022-09-12T21:53:51.884Z,21.90
2022-09-12T21:56:23.903Z,21.90
2022-09-12T21:58:55.685Z,21.80
2022-09-12T22:01:27.628Z,21.80
2022-09-12T22:03:59.452Z,21.80
2022-09-12T22:06:34.504Z,21.80
2022-09-12T22:09:14.021Z,21.70
2022-09-12T22:11:46.094Z,21.70
2022-09-12T22:14:18.091Z,21.70
2022-09-12T22:16:49.943Z,21.70
2022-09-12T22:19:21.720Z,21.60
2022-09-12T22:22:12.259Z,21.50
2022-09-12T22:24:44.081Z,21.40
2022-09-12T22:27:15.913Z,21.20
2022-09-12T22:29:50.608Z,21.20
2022-09-12T22:32:22.445Z,21.10
2022-09-12T22:34:54.246Z,21.10
2022-09-12T22:37:26.459Z,21.10
2022-09-12T22:39:58.356Z,21.10
2022-09-12T22:42:31.229Z,21.10
2022-09-12T22:45:04.240Z,21.20
2022-09-12T22:47:36.129Z,21.20
2022-09-12T22:50:08.280Z,21.20
2022-09-12T22:52:40.530Z,21.20
2022-09-12T22:55:12.336Z,21.00
2022-09-12T22:57:44.119Z,21.00
2022-09-12T23:00:18.262Z,21.00
2022-09-12T23:02:50.152Z,20.90
2022-09-12T23:05:22.307Z,20.90
2022-09-12T23:07:55.591Z,21.00
2022-09-12T23:10:27.564Z,21.00
2022-09-12T23:12:59.377Z,21.00
2022-09-12T23:15:32.037Z,20.90
2022-09-12T23:18:05.265Z,20.90
2022-09-12T23:20:37.170Z,20.80
2022-09-12T23:23:09.833Z,20.70
2022-09-12T23:25:41.633Z,20.60
2022-09-12T23:28:14.742Z,20.70
2022-09-12T23:30:46.553Z,20.70
2022-09-12T23:33:18.500Z,20.60
2022-09-12T23:35:50.296Z,20.60
2022-09-12T23:38:22.156Z,20.60
2022-09-12T23:40:54.015Z,20.60
2022-09-12T23:43:26.139Z,20.50
2022-09-12T23:45:58.692Z,20.50
2022-09-12T23:48:31.495Z,20.30
2022-09-12T23:51:03.491Z,20.30
2022-09-12T23:53:38.029Z,20.30
2022-09-12T23:56:10.470Z,20.30
2022-09-12T23:58:42.359Z,20.30
